Time;durP1;ratioP1;P1;durP2;ratioP2;P2;SDS_P1;SDS_P2;PMS_P1;PMS_P2;Temp;Humidity;BMP_temperature;BMP_pressure;BME280_temperature;BME280_humidity;BME280_pressure;Samples;Min_cycle;Max_cycle;Signal;HPM_P1;HPM_P2
2022/11/27 00:01:35;;;;;;;;;;;;;;;6.23;90.21;102474.41;5047951;28;19924;-60
2022/11/27 00:04:02;;;;;;;;;;;;;;;6.23;89.98;102466.47;5046556;28;21199;-60
2022/11/27 00:06:28;;;;;;;;;;;;;;;6.22;90.14;102467.44;5049154;28;20365;-58
2022/11/27 00:08:55;;;;;;;;;;;;;;;6.19;90.29;102465.84;5049264;28;19917;-60
2022/11/27 00:11:21;;;;;;;;;;;;;;;6.19;90.02;102465.00;5046992;28;19927;-60
2022/11/27 00:13:46;;;;;;;;;;;;;;;6.18;90.05;102471.22;5048099;28;19920;-60
2022/11/27 00:16:11;;;;;;;;;;;;;;;6.18;90.21;102458.03;5046297;28;19986;-60
2022/11/27 00:18:37;;;;;;;;;;;;;;;6.17;89.94;102458.97;5048806;28;19923;-60
2022/11/27 00:21:13;;;;;;;;;;;;;;;6.15;90.10;102458.25;5046984;28;20374;-59
2022/11/27 00:23:38;;;;;;;;;;;;;;;6.13;89.96;102455.72;5048060;28;19912;-60
2022/11/27 00:26:04;;;;;;;;;;;;;;;6.13;90.01;102449.59;5042198;28;19912;-58
2022/11/27 00:28:30;;;;;;;;;;;;;;;6.12;90.33;102446.09;5044242;28;19958;-60
2022/11/27 00:30:59;;;;;;;;;;;;;;;6.11;90.33;102440.94;5042077;28;20311;-60
2022/11/27 00:33:24;;;;;;;;;;;;;;;6.10;90.32;102437.47;5046596;28;19917;-60
2022/11/27 00:35:49;;;;;;;;;;;;;;;6.07;90.03;102436.78;5047444;28;20361;-60
2022/11/27 00:38:14;;;;;;;;;;;;;;;6.06;90.06;102430.66;5045162;28;20412;-59
2022/11/27 00:40:39;;;;;;;;;;;;;;;6.03;89.84;102436.16;5041416;28;20034;-59
2022/11/27 00:43:04;;;;;;;;;;;;;;;6.02;90.20;102428.34;5045116;28;20431;-60
2022/11/27 00:45:30;;;;;;;;;;;;;;;6.00;90.09;102430.25;5046795;28;19923;-59
2022/11/27 00:47:55;;;;;;;;;;;;;;;5.98;90.12;102440.03;5045088;28;19917;-58
2022/11/27 00:50:20;;;;;;;;;;;;;;;5.96;89.87;102428.75;5043112;28;19963;-59
2022/11/27 00:52:45;;;;;;;;;;;;;;;5.95;89.98;102433.19;5044569;28;20008;-59
2022/11/27 00:55:11;;;;;;;;;;;;;;;5.96;90.42;102426.13;5047817;28;19924;-59
2022/11/27 00:57:36;;;;;;;;;;;;;;;5.94;90.27;102425.38;5043880;28;20296;-57
2022/11/27 01:00:01;;;;;;;;;;;;;;;5.92;90.19;102422.00;5047482;28;20001;-60
2022/11/27 01:02:26;;;;;;;;;;;;;;;5.90;90.03;102417.69;5041196;28;19916;-59
2022/11/27 01:04:51;;;;;;;;;;;;;;;5.91;89.97;102410.59;5048253;28;19916;-61
2022/11/27 01:07:17;;;;;;;;;;;;;;;5.89;90.42;102413.34;5042004;28;20284;-60
2022/11/27 01:09:42;;;;;;;;;;;;;;;5.88;90.18;102402.88;5046647;28;20054;-60
2022/11/27 01:12:08;;;;;;;;;;;;;;;5.85;90.12;102390.75;5045582;28;19916;-60
2022/11/27 01:14:33;;;;;;;;;;;;;;;5.83;90.25;102386.53;5047779;28;19940;-57
2022/11/27 01:17:00;;;;;;;;;;;;;;;5.80;90.16;102394.63;5046236;28;19938;-59
2022/11/27 01:19:25;;;;;;;;;;;;;;;5.77;90.28;102387.75;5045156;28;19917;-60
2022/11/27 01:21:51;;;;;;;;;;;;;;;5.75;90.41;102391.44;5038508;28;19929;-58
2022/11/27 01:24:16;;;;;;;;;;;;;;;5.72;90.47;102394.28;5047596;28;20346;-59
2022/11/27 01:26:42;;;;;;;;;;;;;;;5.69;90.16;102391.84;5045372;28;19992;-60
2022/11/27 01:29:07;;;;;;;;;;;;;;;5.65;90.46;102393.84;5049773;28;19959;-61
2022/11/27 01:31:33;;;;;;;;;;;;;;;5.62;90.30;102394.03;5050579;28;20648;-59
2022/11/27 01:34:00;;;;;;;;;;;;;;;5.59;90.39;102388.97;5050898;28;19939;-60
2022/11/27 01:36:25;;;;;;;;;;;;;;;5.58;90.51;102385.50;5049107;28;20448;-59
2022/11/27 01:38:50;;;;;;;;;;;;;;;5.54;90.52;102364.72;5042082;28;20024;-60
2022/11/27 01:41:17;;;;;;;;;;;;;;;5.51;90.70;102364.91;5048402;28;20400;-58
2022/11/27 01:43:44;;;;;;;;;;;;;;;5.48;90.46;102365.09;5049437;28;19964;-60
2022/11/27 01:46:20;;;;;;;;;;;;;;;5.43;90.45;102364.56;5050306;28;19917;-59
2022/11/27 01:48:46;;;;;;;;;;;;;;;5.40;90.49;102362.13;5049636;28;19919;-59
2022/11/27 01:51:11;;;;;;;;;;;;;;;5.38;90.40;102375.41;5049531;28;19917;-60
2022/11/27 01:53:36;;;;;;;;;;;;;;;5.37;90.64;102362.31;5051228;28;19935;-60
2022/11/27 01:56:01;;;;;;;;;;;;;;;5.36;90.71;102344.84;5047920;28;19921;-59
2022/11/27 01:58:28;;;;;;;;;;;;;;;5.34;90.53;102342.28;5049153;28;19921;-60
2022/11/27 02:00:53;;;;;;;;;;;;;;;5.33;90.75;102342.41;5049380;28;19916;-60
2022/11/27 02:03:19;;;;;;;;;;;;;;;5.28;90.36;102327.75;5047833;28;19983;-60
2022/11/27 02:05:44;;;;;;;;;;;;;;;5.28;90.74;102330.38;5043086;28;19988;-60
2022/11/27 02:08:11;;;;;;;;;;;;;;;5.26;90.90;102324.38;5049018;28;20474;-59
2022/11/27 02:10:42;;;;;;;;;;;;;;;5.25;90.70;102321.84;5050417;28;20339;-60
2022/11/27 02:13:17;;;;;;;;;;;;;;;5.23;90.72;102319.31;5048876;28;19939;-59
2022/11/27 02:15:49;;;;;;;;;;;;;;;5.21;90.72;102302.75;5049631;28;19931;-58
2022/11/27 02:18:20;;;;;;;;;;;;;;;5.18;90.58;102295.03;5042843;28;19921;-58
2022/11/27 02:21:04;;;;;;;;;;;;;;;5.16;90.62;102296.06;5048802;28;19928;-60
2022/11/27 02:23:53;;;;;;;;;;;;;;;5.13;90.55;102286.59;5046600;28;19948;-59
2022/11/27 02:26:32;;;;;;;;;;;;;;;5.06;90.79;102276.56;5049299;28;19971;-60
2022/11/27 02:28:57;;;;;;;;;;;;;;;5.10;90.57;102283.31;5052025;28;19921;-60
2022/11/27 02:31:22;;;;;;;;;;;;;;;5.09;90.58;102277.22;5055456;28;19923;-60
2022/11/27 02:33:51;;;;;;;;;;;;;;;5.09;90.58;102286.91;5048206;28;19944;-60
2022/11/27 02:36:21;;;;;;;;;;;;;;;5.09;90.73;102279.84;5049193;28;19917;-58
2022/11/27 02:38:52;;;;;;;;;;;;;;;5.12;90.68;102282.28;5047369;28;19931;-57
2022/11/27 02:41:29;;;;;;;;;;;;;;;5.08;90.79;102267.63;5048363;28;20384;-60
2022/11/27 02:43:55;;;;;;;;;;;;;;;5.08;90.73;102267.63;5054382;28;20376;-58
2022/11/27 02:46:20;;;;;;;;;;;;;;;5.06;90.72;102269.50;5047056;28;20016;-59
2022/11/27 02:48:48;;;;;;;;;;;;;;;5.07;90.80;102275.63;5042417;28;19996;-59
2022/11/27 02:51:16;;;;;;;;;;;;;;;5.07;90.72;102272.97;5048238;28;19986;-59
2022/11/27 02:53:45;;;;;;;;;;;;;;;5.06;90.57;102279.19;5051211;28;19929;-60
2022/11/27 02:56:14;;;;;;;;;;;;;;;5.06;90.48;102285.31;5047083;28;19921;-60
2022/11/27 02:58:39;;;;;;;;;;;;;;;5.05;90.47;102286.25;5050171;28;19917;-59
2022/11/27 03:01:05;;;;;;;;;;;;;;;5.05;90.68;102280.13;5042502;28;19924;-60
2022/11/27 03:03:33;;;;;;;;;;;;;;;5.05;90.67;102288.88;5045299;28;19917;-60
2022/11/27 03:06:01;;;;;;;;;;;;;;;5.04;90.66;102289.81;5049293;28;19959;-60
2022/11/27 03:08:34;;;;;;;;;;;;;;;5.04;90.35;102291.63;5048154;28;19924;-60
2022/11/27 03:11:09;;;;;;;;;;;;;;;5.05;90.68;102290.66;5049131;28;19967;-60
2022/11/27 03:13:37;;;;;;;;;;;;;;;5.05;90.45;102282.78;5046754;28;19917;-58
2022/11/27 03:16:05;;;;;;;;;;;;;;;5.04;90.48;102268.78;5051754;28;19925;-60
2022/11/27 03:18:36;;;;;;;;;;;;;;;5.02;90.52;102265.38;5049020;28;20358;-60
2022/11/27 03:21:19;;;;;;;;;;;;;;;5.04;90.20;102254.75;5046982;28;19921;-60
2022/11/27 03:23:44;;;;;;;;;;;;;;;5.06;90.30;102253.72;5045760;28;19921;-60
2022/11/27 03:26:10;;;;;;;;;;;;;;;5.05;90.25;102253.81;5056264;28;19958;-60
2022/11/27 03:28:35;;;;;;;;;;;;;;;5.05;90.45;102257.28;5050236;28;19912;-60
2022/11/27 03:31:00;;;;;;;;;;;;;;;5.04;90.20;102271.41;5050521;28;20388;-59
2022/11/27 03:33:25;;;;;;;;;;;;;;;5.05;90.25;102257.28;5056474;28;19947;-58
2022/11/27 03:35:51;;;;;;;;;;;;;;;5.05;90.15;102253.81;5047910;28;19916;-58
2022/11/27 03:38:16;;;;;;;;;;;;;;;5.07;90.09;102257.19;5041294;28;19912;-60
2022/11/27 03:40:46;;;;;;;;;;;;;;;5.07;90.24;102246.66;5039498;28;20300;-60
2022/11/27 03:43:13;;;;;;;;;;;;;;;5.06;90.04;102253.72;5044100;28;19913;-60
2022/11/27 03:45:58;;;;;;;;;;;;;;;5.07;90.13;102239.59;5045430;28;20439;-59
2022/11/27 03:48:34;;;;;;;;;;;;;;;5.08;90.17;102229.91;5040384;28;20293;-60
2022/11/27 03:51:19;;;;;;;;;;;;;;;5.08;90.23;102233.38;5045974;28;20632;-60
2022/11/27 03:54:03;;;;;;;;;;;;;;;5.09;90.02;102237.72;5046311;28;19920;-57
2022/11/27 03:56:42;;;;;;;;;;;;;;;5.10;89.65;102239.41;5048121;28;19960;-59
2022/11/27 03:59:12;;;;;;;;;;;;;;;5.05;89.82;102228.31;5040654;28;19944;-61
2022/11/27 04:01:38;;;;;;;;;;;;;;;5.10;89.59;102239.41;5047353;28;20008;-59
2022/11/27 04:04:03;;;;;;;;;;;;;;;5.12;89.76;102236.66;5046184;28;20007;-59
2022/11/27 04:06:28;;;;;;;;;;;;;;;5.14;89.78;102230.34;5043399;28;19920;-60
2022/11/27 04:08:53;;;;;;;;;;;;;;;5.14;89.58;102234.78;5045970;28;19917;-59
2022/11/27 04:11:18;;;;;;;;;;;;;;;5.15;89.60;102242.56;5048302;28;20024;-60
2022/11/27 04:13:44;;;;;;;;;;;;;;;5.16;89.75;102256.56;5045662;28;19920;-60
2022/11/27 04:16:09;;;;;;;;;;;;;;;5.17;89.48;102256.47;5042402;28;19917;-59
2022/11/27 04:18:34;;;;;;;;;;;;;;;5.17;89.55;102253.84;5047309;28;19952;-60
2022/11/27 04:20:59;;;;;;;;;;;;;;;5.19;89.60;102249.31;5047763;28;19921;-58
2022/11/27 04:23:25;;;;;;;;;;;;;;;5.20;89.26;102244.88;5039176;28;20537;-60
2022/11/27 04:25:50;;;;;;;;;;;;;;;5.21;89.39;102250.09;5048464;28;19992;-59
2022/11/27 04:28:16;;;;;;;;;;;;;;;5.20;89.31;102245.78;5048727;28;19924;-60
2022/11/27 04:30:42;;;;;;;;;;;;;;;5.22;89.29;102246.50;5047843;28;19920;-60
2022/11/27 04:33:07;;;;;;;;;;;;;;;5.23;89.35;102244.72;5044547;28;19913;-60
2022/11/27 04:35:32;;;;;;;;;;;;;;;5.24;89.42;102247.25;5044546;28;19928;-60
2022/11/27 04:37:57;;;;;;;;;;;;;;;5.24;89.44;102255.16;5045806;28;19955;-60
2022/11/27 04:40:22;;;;;;;;;;;;;;;5.25;89.25;102246.31;5046948;28;19944;-60
2022/11/27 04:42:48;;;;;;;;;;;;;;;5.26;88.99;102240.09;5050184;28;19921;-60
2022/11/27 04:45:13;;;;;;;;;;;;;;;5.27;89.28;102241.78;5041874;28;20315;-59
2022/11/27 04:47:38;;;;;;;;;;;;;;;5.29;89.28;102239.03;5048582;28;20308;-58
2022/11/27 04:50:04;;;;;;;;;;;;;;;5.29;89.13;102233.78;5046490;28;20395;-60
2022/11/27 04:52:29;;;;;;;;;;;;;;;5.31;89.04;102220.50;5043277;28;20383;-60
2022/11/27 04:54:54;;;;;;;;;;;;;;;5.31;89.18;102212.59;5046246;28;20403;-59
2022/11/27 04:57:19;;;;;;;;;;;;;;;5.32;89.47;102212.50;5045377;28;19921;-60
2022/11/27 04:59:45;;;;;;;;;;;;;;;5.28;88.99;102203.94;5042634;28;20024;-60
2022/11/27 05:02:10;;;;;;;;;;;;;;;5.28;88.96;102200.47;5052034;28;19916;-60
2022/11/27 05:04:35;;;;;;;;;;;;;;;5.27;89.03;102204.91;5050183;28;19978;-60
2022/11/27 05:07:00;;;;;;;;;;;;;;;5.28;89.17;102201.31;5052062;28;20327;-59
2022/11/27 05:09:25;;;;;;;;;;;;;;;5.28;88.96;102187.31;5047562;28;19917;-60
2022/11/27 05:11:51;;;;;;;;;;;;;;;5.28;89.00;102192.56;5049689;28;20397;-60
2022/11/27 05:14:20;;;;;;;;;;;;;;;5.28;89.11;102189.94;5045019;28;19925;-58
2022/11/27 05:16:50;;;;;;;;;;;;;;;5.28;89.32;102189.94;5052449;28;19917;-60
2022/11/27 05:19:15;;;;;;;;;;;;;;;5.27;88.90;102181.19;5055221;28;19924;-58
2022/11/27 05:21:42;;;;;;;;;;;;;;;5.27;89.19;102183.84;5048627;28;19921;-60
2022/11/27 05:24:07;;;;;;;;;;;;;;;5.28;89.00;102187.31;5051211;28;19924;-60
2022/11/27 05:26:33;;;;;;;;;;;;;;;5.27;88.84;102175.94;5045443;28;19917;-60
2022/11/27 05:28:58;;;;;;;;;;;;;;;5.28;89.30;102171.50;5049850;28;19908;-59
2022/11/27 05:31:23;;;;;;;;;;;;;;;5.32;89.15;102174.78;5052348;28;19919;-58
2022/11/27 05:33:49;;;;;;;;;;;;;;;5.32;89.11;102167.72;5051575;28;19917;-59
2022/11/27 05:36:14;;;;;;;;;;;;;;;5.33;89.01;102165.91;5052604;28;20281;-60
2022/11/27 05:38:39;;;;;;;;;;;;;;;5.33;88.94;102166.75;5043538;28;21235;-60
2022/11/27 05:41:04;;;;;;;;;;;;;;;5.33;89.08;102165.91;5044556;28;19917;-60
2022/11/27 05:43:29;;;;;;;;;;;;;;;5.35;89.05;102174.56;5049813;28;19916;-59
2022/11/27 05:45:55;;;;;;;;;;;;;;;5.35;88.89;102174.56;5051310;28;19981;-60
2022/11/27 05:48:20;;;;;;;;;;;;;;;5.35;88.71;102167.50;5051036;28;19913;-60
2022/11/27 05:50:45;;;;;;;;;;;;;;;5.35;88.50;102170.13;5051519;28;19939;-58
2022/11/27 05:53:10;;;;;;;;;;;;;;;5.36;88.94;102169.19;5049398;28;19913;-60
2022/11/27 05:55:35;;;;;;;;;;;;;;;5.38;88.57;102169.09;5048996;28;20426;-60
2022/11/27 05:58:00;;;;;;;;;;;;;;;5.40;88.55;102159.28;5049246;28;19920;-60
2022/11/27 06:00:26;;;;;;;;;;;;;;;5.42;88.63;102160.03;5049574;28;20527;-60
2022/11/27 06:02:51;;;;;;;;;;;;;;;5.43;88.56;102143.25;5050208;28;20315;-60
2022/11/27 06:05:16;;;;;;;;;;;;;;;5.45;88.91;102149.25;5049810;28;19920;-60
2022/11/27 06:07:41;;;;;;;;;;;;;;;5.44;88.67;102147.59;5048826;28;19921;-60
2022/11/27 06:10:07;;;;;;;;;;;;;;;5.45;88.67;102144.00;5050015;28;19917;-61
2022/11/27 06:12:32;;;;;;;;;;;;;;;5.45;88.48;102154.53;5050764;28;20011;-60
2022/11/27 06:14:57;;;;;;;;;;;;;;;5.45;88.65;102141.38;5050728;28;20438;-61
2022/11/27 06:17:22;;;;;;;;;;;;;;;5.45;88.67;102144.00;5048988;28;20285;-59
2022/11/27 06:19:48;;;;;;;;;;;;;;;5.46;88.78;102143.91;5047736;28;19924;-60
2022/11/27 06:22:13;;;;;;;;;;;;;;;5.45;88.73;102150.09;5048398;28;19924;-60
2022/11/27 06:24:38;;;;;;;;;;;;;;;5.46;88.63;102143.91;5047138;28;19925;-60
2022/11/27 06:27:03;;;;;;;;;;;;;;;5.48;88.94;102133.25;5043739;28;19921;-60
2022/11/27 06:29:28;;;;;;;;;;;;;;;5.49;88.76;102125.25;5044525;28;19923;-60
2022/11/27 06:31:53;;;;;;;;;;;;;;;5.49;88.36;102130.53;5050350;28;20396;-59
2022/11/27 06:34:19;;;;;;;;;;;;;;;5.50;88.66;102131.38;5050300;28;19921;-60
2022/11/27 06:36:45;;;;;;;;;;;;;;;5.49;88.56;102130.53;5050462;28;20018;-61
2022/11/27 06:39:10;;;;;;;;;;;;;;;5.50;88.81;102128.75;5047336;28;19967;-60
2022/11/27 06:41:36;;;;;;;;;;;;;;;5.49;88.60;102140.19;5049363;28;20391;-59
2022/11/27 06:44:01;;;;;;;;;;;;;;;5.50;88.79;102136.66;5043430;28;19924;-60
2022/11/27 06:46:27;;;;;;;;;;;;;;;5.51;88.89;102135.69;5048580;28;19917;-60
2022/11/27 06:48:52;;;;;;;;;;;;;;;5.50;88.51;102134.00;5050444;28;19923;-60
2022/11/27 06:51:19;;;;;;;;;;;;;;;5.51;88.71;102123.38;5047443;28;19925;-58
2022/11/27 06:53:44;;;;;;;;;;;;;;;5.53;88.55;102116.19;5044711;28;19917;-60
2022/11/27 06:56:11;;;;;;;;;;;;;;;5.53;88.67;102120.63;5046548;28;19916;-59
2022/11/27 06:58:36;;;;;;;;;;;;;;;5.50;88.61;102113.78;5045438;28;19966;-60
2022/11/27 07:01:03;;;;;;;;;;;;;;;5.51;88.51;102114.63;5046821;28;19932;-59
2022/11/27 07:03:28;;;;;;;;;;;;;;;5.50;88.62;102103.25;5047754;28;19917;-57
2022/11/27 07:05:53;;;;;;;;;;;;;;;5.50;88.80;102108.50;5043831;28;19963;-59
2022/11/27 07:08:19;;;;;;;;;;;;;;;5.50;88.92;102111.16;5050244;28;19947;-59
2022/11/27 07:10:44;;;;;;;;;;;;;;;5.50;88.81;102105.03;5046023;28;20412;-60
2022/11/27 07:13:09;;;;;;;;;;;;;;;5.49;89.00;102096.28;5046965;28;19931;-57
2022/11/27 07:15:34;;;;;;;;;;;;;;;5.49;89.03;102096.28;5042477;28;19923;-59
2022/11/27 07:18:00;;;;;;;;;;;;;;;5.49;89.13;102084.88;5047359;28;20416;-60
2022/11/27 07:20:25;;;;;;;;;;;;;;;5.48;88.97;102083.19;5040853;28;19964;-60
2022/11/27 07:22:50;;;;;;;;;;;;;;;5.47;88.94;102073.59;5045264;28;19921;-57
2022/11/27 07:25:15;;;;;;;;;;;;;;;5.45;89.01;102063.19;5042800;28;19960;-58
2022/11/27 07:27:40;;;;;;;;;;;;;;;5.45;89.24;102080.78;5047241;28;19956;-59
2022/11/27 07:30:06;;;;;;;;;;;;;;;5.41;88.98;102082.78;5044616;28;19917;-59
2022/11/27 07:32:31;;;;;;;;;;;;;;;5.39;89.10;102075.94;5047917;28;20887;-59
2022/11/27 07:34:56;;;;;;;;;;;;;;;5.38;89.11;102074.25;5043976;28;19921;-59
2022/11/27 07:37:22;;;;;;;;;;;;;;;5.37;89.29;102057.59;5045307;28;19968;-60
2022/11/27 07:39:47;;;;;;;;;;;;;;;5.36;89.42;102066.47;5047281;28;19921;-59
2022/11/27 07:42:12;;;;;;;;;;;;;;;5.38;89.12;102064.56;5049062;28;20433;-60
2022/11/27 07:44:37;;;;;;;;;;;;;;;5.36;89.39;102070.88;5055529;28;20429;-59
2022/11/27 07:47:02;;;;;;;;;;;;;;;5.35;89.31;102056.88;5044719;28;20388;-60
2022/11/27 07:49:28;;;;;;;;;;;;;;;5.34;89.33;102055.19;5046889;28;19923;-60
2022/11/27 07:51:53;;;;;;;;;;;;;;;5.35;89.55;102043.69;5056963;28;20408;-57
2022/11/27 07:54:18;;;;;;;;;;;;;;;5.32;89.36;102041.28;5048731;28;19923;-59
2022/11/27 07:56:43;;;;;;;;;;;;;;;5.28;89.40;102026.66;5047580;28;19936;-60
2022/11/27 07:59:08;;;;;;;;;;;;;;;5.29;89.88;102023.06;5045946;28;19923;-60
2022/11/27 08:01:33;;;;;;;;;;;;;;;5.31;89.69;102015.91;5047481;28;19921;-59
2022/11/27 08:03:59;;;;;;;;;;;;;;;5.28;89.50;102016.13;5044608;28;19917;-58
2022/11/27 08:06:25;;;;;;;;;;;;;;;5.27;89.89;102017.91;5046976;28;19916;-58
2022/11/27 08:08:51;;;;;;;;;;;;;;;5.25;89.76;102019.81;5044569;28;19924;-60
2022/11/27 08:11:18;;;;;;;;;;;;;;;5.25;90.11;102022.44;5046878;28;19920;-58
2022/11/27 08:13:43;;;;;;;;;;;;;;;5.25;90.22;102013.69;5042678;28;19921;-60
2022/11/27 08:16:08;;;;;;;;;;;;;;;5.26;89.86;102020.66;5044970;28;19948;-58
2022/11/27 08:18:33;;;;;;;;;;;;;;;5.26;90.00;102016.22;5043830;28;19928;-61
2022/11/27 08:20:59;;;;;;;;;;;;;;;5.28;90.24;102021.38;5043231;28;20007;-59
2022/11/27 08:23:24;;;;;;;;;;;;;;;5.28;90.02;102024.84;5044078;28;19924;-59
2022/11/27 08:25:49;;;;;;;;;;;;;;;5.32;90.29;102022.00;5046401;28;20011;-59
2022/11/27 08:28:14;;;;;;;;;;;;;;;5.34;90.34;102020.09;5046664;28;19925;-59
2022/11/27 08:30:39;;;;;;;;;;;;;;;5.34;90.18;102026.22;5042304;28;20061;-59
2022/11/27 08:33:05;;;;;;;;;;;;;;;5.37;90.33;102023.38;5044075;28;20016;-58
2022/11/27 08:35:30;;;;;;;;;;;;;;;5.40;90.43;102023.16;5048111;28;19924;-60
2022/11/27 08:37:55;;;;;;;;;;;;;;;5.43;90.53;102022.09;5041473;28;19917;-60
2022/11/27 08:40:20;;;;;;;;;;;;;;;5.46;90.29;102021.88;5044971;28;19928;-60
2022/11/27 08:42:45;;;;;;;;;;;;;;;5.48;90.28;102017.31;5044746;28;20003;-60
2022/11/27 08:45:11;;;;;;;;;;;;;;;5.48;90.49;102018.16;5052309;28;19919;-60
2022/11/27 08:47:36;;;;;;;;;;;;;;;5.50;90.47;102016.28;5044659;28;19924;-58
2022/11/27 08:50:01;;;;;;;;;;;;;;;5.53;90.56;102020.50;5044230;28;19917;-59
2022/11/27 08:52:26;;;;;;;;;;;;;;;5.54;90.57;102020.38;5047648;28;19917;-60
2022/11/27 08:54:51;;;;;;;;;;;;;;;5.56;90.82;102025.56;5045863;28;19921;-59
2022/11/27 08:57:17;;;;;;;;;;;;;;;5.58;90.76;102026.28;5043063;28;20485;-60
2022/11/27 08:59:42;;;;;;;;;;;;;;;5.59;90.73;102022.69;5041966;28;20019;-58
2022/11/27 09:02:09;;;;;;;;;;;;;;;5.61;90.76;102031.34;5043011;28;19928;-60
2022/11/27 09:04:35;;;;;;;;;;;;;;;5.64;90.69;102030.28;5044398;28;19917;-58
2022/11/27 09:07:00;;;;;;;;;;;;;;;5.67;90.94;102024.78;5046468;28;20396;-62
2022/11/27 09:09:25;;;;;;;;;;;;;;;5.69;91.00;102023.72;5039470;28;19921;-59
2022/11/27 09:11:52;;;;;;;;;;;;;;;5.70;90.91;102022.75;5040910;28;19939;-59
2022/11/27 09:14:17;;;;;;;;;;;;;;;5.72;90.97;102018.22;5048958;28;20407;-60
2022/11/27 09:16:43;;;;;;;;;;;;;;;5.73;90.79;102022.53;5044323;28;19917;-56
2022/11/27 09:19:08;;;;;;;;;;;;;;;5.75;91.00;102015.34;5047891;28;19917;-60
2022/11/27 09:21:33;;;;;;;;;;;;;;;5.78;91.16;102020.44;5047610;28;19920;-60
2022/11/27 09:23:59;;;;;;;;;;;;;;;5.80;91.31;102018.53;5048306;28;19920;-59
2022/11/27 09:26:25;;;;;;;;;;;;;;;5.80;91.39;102015.91;5047668;28;20448;-58
2022/11/27 09:28:51;;;;;;;;;;;;;;;5.83;91.08;102013.03;5048445;28;19917;-57
2022/11/27 09:31:16;;;;;;;;;;;;;;;5.84;91.29;102009.44;5047785;28;19912;-57
2022/11/27 09:33:42;;;;;;;;;;;;;;;5.87;91.55;102018.91;5050482;28;19966;-57
2022/11/27 09:36:07;;;;;;;;;;;;;;;5.90;91.29;102013.47;5048493;28;19913;-59
2022/11/27 09:38:32;;;;;;;;;;;;;;;5.92;91.62;102016.81;5041338;28;20487;-57
2022/11/27 09:41:01;;;;;;;;;;;;;;;5.95;91.50;102010.47;5043210;28;19967;-59
2022/11/27 09:43:28;;;;;;;;;;;;;;;5.97;91.90;102013.84;5048065;28;19913;-59
2022/11/27 09:45:56;;;;;;;;;;;;;;;5.99;91.51;102017.22;5048756;28;19913;-59
2022/11/27 09:48:26;;;;;;;;;;;;;;;6.02;91.55;102009.91;5051121;28;19920;-60
2022/11/27 09:50:53;;;;;;;;;;;;;;;6.05;91.69;102008.84;5051033;28;19922;-59
2022/11/27 09:53:25;;;;;;;;;;;;;;;6.08;91.41;102001.56;5049586;28;19921;-60
2022/11/27 09:55:52;;;;;;;;;;;;;;;6.11;91.65;102003.16;5048595;28;19920;-58
2022/11/27 09:58:17;;;;;;;;;;;;;;;6.12;91.45;101989.00;5050417;28;19936;-58
2022/11/27 10:00:43;;;;;;;;;;;;;;;6.14;91.71;101981.81;5047863;28;19931;-60
2022/11/27 10:03:12;;;;;;;;;;;;;;;6.15;91.58;101980.84;5047149;28;19951;-60
2022/11/27 10:05:46;;;;;;;;;;;;;;;6.16;91.56;101979.91;5050463;28;19925;-58
2022/11/27 10:08:14;;;;;;;;;;;;;;;6.16;91.34;101974.63;5040520;28;19936;-57
2022/11/27 10:10:43;;;;;;;;;;;;;;;6.19;91.48;101972.59;5045568;28;19931;-60
2022/11/27 10:13:15;;;;;;;;;;;;;;;6.21;91.75;101965.41;5049140;28;20015;-60
2022/11/27 10:15:44;;;;;;;;;;;;;;;6.25;91.59;101960.75;5047099;28;19917;-58
2022/11/27 10:18:13;;;;;;;;;;;;;;;6.28;91.74;101960.50;5050592;28;20335;-59
2022/11/27 10:20:42;;;;;;;;;;;;;;;6.31;91.45;101949.72;5049458;28;20011;-58
2022/11/27 10:23:19;;;;;;;;;;;;;;;6.34;91.72;101946.00;5049556;28;20343;-59
2022/11/27 10:25:47;;;;;;;;;;;;;;;6.36;91.61;101947.59;5049038;28;20392;-60
2022/11/27 10:28:25;;;;;;;;;;;;;;;6.36;91.80;101944.97;5048751;28;19969;-58
2022/11/27 10:30:53;;;;;;;;;;;;;;;6.38;91.75;101940.41;5048508;28;19931;-58
2022/11/27 10:33:24;;;;;;;;;;;;;;;6.39;91.77;101935.97;5050270;28;20645;-60
2022/11/27 10:35:50;;;;;;;;;;;;;;;6.40;91.67;101930.59;5051046;28;19916;-59
2022/11/27 10:38:20;;;;;;;;;;;;;;;6.38;91.73;101929.03;5050285;28;19965;-57
2022/11/27 10:40:45;;;;;;;;;;;;;;;6.38;91.48;101927.22;5042035;28;19924;-59
2022/11/27 10:43:10;;;;;;;;;;;;;;;6.39;91.58;101915.72;5045851;28;19925;-60
2022/11/27 10:45:39;;;;;;;;;;;;;;;6.41;91.46;101919.06;5049036;28;19921;-59
2022/11/27 10:48:04;;;;;;;;;;;;;;;6.40;91.58;101920.03;5048731;28;19925;-59
2022/11/27 10:50:29;;;;;;;;;;;;;;;6.41;91.55;101912.94;5048215;28;19932;-57
2022/11/27 10:52:56;;;;;;;;;;;;;;;6.42;91.51;101909.34;5048461;28;19921;-59
2022/11/27 10:55:38;;;;;;;;;;;;;;;6.44;91.72;101910.06;5045543;28;19916;-58
2022/11/27 10:58:23;;;;;;;;;;;;;;;6.45;91.96;101909.97;5046271;28;19971;-58
2022/11/27 11:00:58;;;;;;;;;;;;;;;6.48;92.03;101906.25;5047677;28;20333;-58
2022/11/27 11:03:23;;;;;;;;;;;;;;;6.48;92.09;101903.59;5047526;28;20761;-58
2022/11/27 11:05:57;;;;;;;;;;;;;;;6.49;91.81;101900.00;5047401;28;19924;-58
2022/11/27 11:08:24;;;;;;;;;;;;;;;6.48;92.19;101899.16;5043947;28;19920;-59
2022/11/27 11:10:50;;;;;;;;;;;;;;;6.49;91.82;101892.94;5043600;28;19999;-59
2022/11/27 11:13:17;;;;;;;;;;;;;;;6.49;92.22;101890.28;5049268;28;20364;-59
2022/11/27 11:15:55;;;;;;;;;;;;;;;6.49;91.99;101890.28;5048811;28;19928;-56
2022/11/27 11:18:24;;;;;;;;;;;;;;;6.50;92.23;101881.41;5042744;28;19917;-58
2022/11/27 11:20:51;;;;;;;;;;;;;;;6.53;92.26;101877.69;5047387;28;20270;-60
2022/11/27 11:23:21;;;;;;;;;;;;;;;6.54;92.15;101871.47;5047764;28;19924;-59
2022/11/27 11:25:51;;;;;;;;;;;;;;;6.57;92.01;101871.22;5043549;28;19924;-60
2022/11/27 11:28:17;;;;;;;;;;;;;;;6.59;92.27;101863.19;5042009;28;19913;-59
2022/11/27 11:30:51;;;;;;;;;;;;;;;6.62;91.95;101852.38;5048483;28;19928;-59
2022/11/27 11:33:16;;;;;;;;;;;;;;;6.62;92.08;101852.38;5036648;28;19936;-60
2022/11/27 11:35:41;;;;;;;;;;;;;;;6.62;92.15;101842.66;5050533;28;20312;-60
2022/11/27 11:38:15;;;;;;;;;;;;;;;6.64;91.85;101829.34;5049518;28;19955;-60
2022/11/27 11:40:44;;;;;;;;;;;;;;;6.66;91.92;101820.38;5054008;28;19913;-60
2022/11/27 11:43:25;;;;;;;;;;;;;;;6.67;91.91;101816.78;5041538;28;19924;-60
2022/11/27 11:45:50;;;;;;;;;;;;;;;6.68;91.76;101825.53;5049399;28;19917;-61
2022/11/27 11:48:26;;;;;;;;;;;;;;;6.70;91.71;101819.16;5048113;28;19921;-59
2022/11/27 11:50:54;;;;;;;;;;;;;;;6.70;91.59;101810.41;5045210;28;19917;-60
2022/11/27 11:53:22;;;;;;;;;;;;;;;6.73;91.86;101812.78;5049245;28;20376;-60
2022/11/27 11:55:56;;;;;;;;;;;;;;;6.75;91.84;101808.22;5051908;28;19928;-60
2022/11/27 11:58:34;;;;;;;;;;;;;;;6.73;91.59;101794.31;5048657;28;19913;-59
2022/11/27 12:01:05;;;;;;;;;;;;;;;6.75;91.56;101795.88;5046794;28;20419;-60
2022/11/27 12:03:56;;;;;;;;;;;;;;;6.76;91.51;101783.50;5044376;28;19917;-59
2022/11/27 12:06:21;;;;;;;;;;;;;;;6.77;91.44;101780.75;5048443;28;19944;-60
2022/11/27 12:09:07;;;;;;;;;;;;;;;6.77;91.43;101778.13;5044664;28;19920;-59
2022/11/27 12:11:38;;;;;;;;;;;;;;;6.79;91.65;101759.50;5035478;28;20427;-58
2022/11/27 12:14:13;;;;;;;;;;;;;;;6.78;91.62;101749.91;5048273;28;19926;-58
2022/11/27 12:16:49;;;;;;;;;;;;;;;6.79;91.40;101756.88;5045109;28;20284;-60
2022/11/27 12:19:25;;;;;;;;;;;;;;;6.79;91.35;101738.38;5047656;28;19928;-60
2022/11/27 12:21:58;;;;;;;;;;;;;;;6.80;91.98;101740.91;5048905;28;20012;-60
2022/11/27 12:24:37;;;;;;;;;;;;;;;6.82;91.97;101730.22;5048396;28;19955;-59
2022/11/27 12:27:11;;;;;;;;;;;;;;;6.83;91.72;101745.09;5048573;28;19952;-60
2022/11/27 12:29:36;;;;;;;;;;;;;;;6.85;91.91;101751.09;5051419;28;20480;-59
2022/11/27 12:32:13;;;;;;;;;;;;;;;6.84;92.04;101744.97;5049619;28;20439;-60
2022/11/27 12:34:57;;;;;;;;;;;;;;;6.84;91.72;101738.84;5053676;28;19973;-60
2022/11/27 12:37:38;;;;;;;;;;;;;;;6.84;92.01;101737.03;5042203;28;19952;-58
2022/11/27 12:40:22;;;;;;;;;;;;;;;6.86;91.92;101723.72;5044061;28;19920;-59
2022/11/27 12:43:00;;;;;;;;;;;;;;;6.87;91.85;101709.56;5045726;28;19921;-59
2022/11/27 12:45:34;;;;;;;;;;;;;;;6.90;92.05;101708.47;5048288;28;19913;-59
2022/11/27 12:48:16;;;;;;;;;;;;;;;6.91;91.92;101704.84;5047733;28;19916;-59
2022/11/27 12:50:53;;;;;;;;;;;;;;;6.92;91.65;101696.81;5044302;28;19916;-60